Terminal Aerodrome Forecast
Issued by NWS

Home | Current Version | Previous Version | Text Only | Print | Product List | Glossary On
Versions: 1 2 3 4 5 6 7 8 9 10 11 12 13 14 15
000
FTUS45 KRIW 231100
TAFBPI
TAF
KBPI 231123Z 2312/2412 VRB04KT P6SM -SHRA VCFG SCT015 OVC030
      TEMPO 2312/2315 6SM -RA BR BKN015
     FM231800 VRB05KT P6SM VCTS SCT050CB BKN080
     FM240200 VRB05KT P6SM VCSH BKN080
     FM240600 34007KT P6SM SCT050 BKN100=

USA.gov is the U.S. government's official web portal to all federal, state and local government web resources and services.